Time;durP1;ratioP1;P1;durP2;ratioP2;P2;SDS_P1;SDS_P2;PMS_P1;PMS_P2;Temp;Humidity;BMP_temperature;BMP_pressure;BME280_temperature;BME280_humidity;BME280_pressure;Samples;Min_cycle;Max_cycle;Signal;HPM_P1;HPM_P2
2023/05/17 00:13:27;;;;;;;9.25;1.00;;;9.00;99.90;;;;;;4722229;30;20143;-83
2023/05/17 00:37:59;;;;;;;8.65;1.10;;;9.10;99.90;;;;;;5087614;22;20147;-83
2023/05/17 00:40:25;;;;;;;9.40;0.75;;;9.10;99.90;;;;;;5113033;28;20087;-82
2023/05/17 00:42:51;;;;;;;11.30;1.00;;;9.00;99.90;;;;;;5112772;28;20134;-83
2023/05/17 00:45:16;;;;;;;6.78;0.95;;;9.00;99.90;;;;;;5103505;28;20379;-82
2023/05/17 00:47:42;;;;;;;9.65;1.35;;;9.00;99.90;;;;;;5092678;28;20440;-83
2023/05/17 00:50:08;;;;;;;13.32;1.35;;;9.40;99.90;;;;;;5092450;28;20056;-83
2023/05/17 00:52:35;;;;;;;9.27;1.13;;;9.00;99.90;;;;;;5092607;28;20553;-84
2023/05/17 00:55:01;;;;;;;5.28;0.73;;;9.60;99.90;;;;;;5092580;28;20093;-82
2023/05/17 00:57:28;;;;;;;12.13;1.38;;;9.10;99.90;;;;;;5092771;28;20055;-84
2023/05/17 00:59:54;;;;;;;14.80;1.27;;;9.00;99.90;;;;;;5104579;28;20115;-83
2023/05/17 01:02:21;;;;;;;8.48;1.30;;;9.00;99.90;;;;;;5093157;28;20128;-83
2023/05/17 01:04:47;;;;;;;6.07;0.88;;;9.00;99.90;;;;;;5092600;28;20040;-83
2023/05/17 01:07:13;;;;;;;8.88;1.23;;;9.00;99.90;;;;;;5091009;28;20048;-83
2023/05/17 01:09:39;;;;;;;13.18;0.77;;;9.80;99.90;;;;;;5092418;28;20094;-83
2023/05/17 01:12:23;;;;;;;6.95;1.30;;;9.20;99.90;;;;;;5092543;28;20044;-83
2023/05/17 01:15:14;;;;;;;12.95;1.40;;;8.90;99.90;;;;;;5105980;28;20470;-83
2023/05/17 01:18:20;;;;;;;12.57;0.90;;;9.00;99.90;;;;;;5112856;28;20044;-83
2023/05/17 01:20:47;;;;;;;14.80;1.23;;;9.00;99.90;;;;;;5100231;28;20051;-83
2023/05/17 01:23:27;;;;;;;10.65;1.25;;;9.50;99.90;;;;;;5097944;28;20040;-82
2023/05/17 01:25:59;;;;;;;4.78;0.90;;;9.10;99.90;;;;;;5116705;28;20130;-83
2023/05/17 01:28:27;;;;;;;13.15;1.15;;;9.10;99.90;;;;;;5116686;28;20070;-82
2023/05/17 01:30:55;;;;;;;6.25;1.48;;;9.10;99.90;;;;;;5116625;28;20047;-82
2023/05/17 01:33:21;;;;;;;3.40;0.60;;;9.10;99.90;;;;;;5116164;28;20044;-82
2023/05/17 01:35:47;;;;;;;12.13;1.20;;;9.10;99.90;;;;;;5102114;28;20032;-82
2023/05/17 01:38:13;;;;;;;10.00;0.85;;;9.50;99.90;;;;;;5095703;28;20055;-83
2023/05/17 01:40:47;;;;;;;8.63;0.88;;;9.20;99.90;;;;;;5097190;28;20039;-82
2023/05/17 01:43:28;;;;;;;4.88;0.60;;;9.10;99.90;;;;;;5096128;28;20395;-83
2023/05/17 01:46:10;;;;;;;7.80;0.75;;;9.00;99.90;;;;;;5095934;28;20079;-83
2023/05/17 01:48:39;;;;;;;3.92;0.77;;;9.00;99.90;;;;;;5098045;28;20097;-83
2023/05/17 01:51:06;;;;;;;7.13;0.70;;;9.10;99.90;;;;;;5115863;28;20083;-84
2023/05/17 01:53:38;;;;;;;5.22;0.65;;;8.80;99.90;;;;;;5097199;28;20511;-83
2023/05/17 01:56:08;;;;;;;11.10;0.70;;;8.90;99.90;;;;;;5099645;28;20097;-82
2023/05/17 01:58:45;;;;;;;6.38;0.70;;;8.80;99.90;;;;;;5095704;28;20052;-82
2023/05/17 02:01:13;;;;;;;4.55;0.60;;;8.90;99.90;;;;;;5095665;28;20039;-83
2023/05/17 02:03:39;;;;;;;5.40;0.60;;;9.00;99.90;;;;;;5095546;28;20044;-83
2023/05/17 02:06:04;;;;;;;5.53;0.77;;;8.70;99.90;;;;;;5095390;28;20036;-82
2023/05/17 02:08:30;;;;;;;8.38;1.25;;;8.70;99.90;;;;;;5095311;28;20047;-84
2023/05/17 02:10:56;;;;;;;6.40;0.70;;;8.70;99.90;;;;;;5095467;28;20093;-84
2023/05/17 02:13:21;;;;;;;4.82;0.77;;;8.70;99.90;;;;;;5095193;28;20055;-82
2023/05/17 02:15:47;;;;;;;4.65;0.60;;;8.90;99.90;;;;;;5095085;28;20041;-82
2023/05/17 02:18:13;;;;;;;6.97;0.68;;;8.80;99.90;;;;;;5095398;28;20048;-82
2023/05/17 02:20:38;;;;;;;8.02;0.85;;;8.50;99.90;;;;;;5095182;28;20040;-82
2023/05/17 02:23:04;;;;;;;6.03;0.70;;;8.40;99.90;;;;;;5094998;28;20048;-82
2023/05/17 02:25:30;;;;;;;4.72;0.80;;;9.10;99.90;;;;;;5096857;28;20043;-82
2023/05/17 02:27:55;;;;;;;9.13;0.82;;;8.50;99.90;;;;;;5115406;28;20054;-84
2023/05/17 02:30:21;;;;;;;4.28;0.70;;;8.40;99.90;;;;;;5097134;28;20039;-83
2023/05/17 02:32:47;;;;;;;5.60;0.70;;;8.30;99.90;;;;;;5115590;28;20043;-85
2023/05/17 02:35:13;;;;;;;6.03;0.70;;;8.40;99.90;;;;;;5115056;28;20036;-83
2023/05/17 02:37:39;;;;;;;6.38;0.57;;;8.30;99.90;;;;;;5113870;28;20100;-83
2023/05/17 02:40:08;;;;;;;2.83;0.43;;;8.30;99.90;;;;;;5113267;28;20043;-83
2023/05/17 02:42:37;;;;;;;4.72;0.60;;;8.30;99.90;;;;;;5114863;28;20433;-83
2023/05/17 02:45:03;;;;;;;7.45;1.13;;;8.20;99.90;;;;;;5061809;28;20514;-82
2023/05/17 02:47:29;;;;;;;2.60;0.52;;;8.20;99.90;;;;;;5094663;28;20047;-82
2023/05/17 02:49:54;;;;;;;9.15;1.17;;;8.80;99.90;;;;;;5094731;28;20044;-83
2023/05/17 02:52:20;;;;;;;5.43;0.70;;;8.30;99.90;;;;;;5094558;28;20047;-82
2023/05/17 02:54:46;;;;;;;4.82;1.30;;;8.70;99.90;;;;;;5107027;28;20513;-83
2023/05/17 02:57:12;;;;;;;5.95;0.90;;;8.40;99.90;;;;;;5114750;28;20064;-83
2023/05/17 02:59:38;;;;;;;6.35;0.85;;;8.30;99.90;;;;;;5109980;28;20058;-83
2023/05/17 03:02:04;;;;;;;6.65;1.00;;;8.40;99.90;;;;;;5114828;28;20491;-84
2023/05/17 03:04:31;;;;;;;6.00;1.90;;;8.40;99.90;;;;;;5114822;28;20040;-84
2023/05/17 03:06:57;;;;;;;8.65;1.80;;;8.50;99.90;;;;;;5114708;28;20062;-83
2023/05/17 03:09:23;;;;;;;10.38;0.93;;;8.50;99.90;;;;;;5114678;28;20460;-85
2023/05/17 03:11:48;;;;;;;4.93;0.80;;;8.50;99.90;;;;;;5106153;28;20510;-84
2023/05/17 03:14:14;;;;;;;12.48;0.93;;;9.00;99.90;;;;;;5094293;28;20040;-84
2023/05/17 03:16:39;;;;;;;5.38;0.75;;;8.50;99.90;;;;;;5094300;28;20054;-84
2023/05/17 03:19:05;;;;;;;11.65;1.10;;;8.60;99.90;;;;;;5095873;28;20050;-83
2023/05/17 03:21:31;;;;;;;7.85;0.95;;;8.60;99.90;;;;;;5114312;28;20407;-84
2023/05/17 03:23:57;;;;;;;6.32;0.60;;;8.60;99.90;;;;;;5096096;28;20348;-83
2023/05/17 03:26:23;;;;;;;10.07;0.50;;;8.50;99.90;;;;;;5112530;28;20436;-87
2023/05/17 03:28:48;;;;;;;5.53;0.73;;;8.30;99.90;;;;;;5114284;28;20507;-84
2023/05/17 03:31:14;;;;;;;5.15;0.60;;;8.60;99.90;;;;;;5114117;28;20050;-83
2023/05/17 03:33:40;;;;;;;14.32;0.77;;;8.60;99.90;;;;;;5113919;28;20047;-84
2023/05/17 03:36:06;;;;;;;5.70;1.52;;;8.50;99.90;;;;;;5095724;28;20090;-84
2023/05/17 03:38:31;;;;;;;9.63;0.90;;;8.40;99.90;;;;;;5113818;28;20048;-85
2023/05/17 03:40:57;;;;;;;7.43;1.13;;;8.40;99.90;;;;;;5111308;28;20043;-84
2023/05/17 03:43:23;;;;;;;9.75;0.65;;;8.70;99.90;;;;;;5093526;28;20072;-82
2023/05/17 03:45:49;;;;;;;4.57;0.50;;;8.80;99.90;;;;;;5093000;28;20089;-83
2023/05/17 03:48:14;;;;;;;7.50;0.70;;;8.50;99.90;;;;;;5100984;28;20034;-83
2023/05/17 03:50:40;;;;;;;2.97;0.68;;;8.40;99.90;;;;;;5113712;28;20443;-84
2023/05/17 03:53:06;;;;;;;6.38;0.73;;;8.30;99.90;;;;;;5112029;28;20495;-83
2023/05/17 03:55:32;;;;;;;3.47;0.52;;;8.60;99.90;;;;;;5095340;28;20036;-85
2023/05/17 03:57:57;;;;;;;3.17;0.98;;;8.60;99.90;;;;;;5113763;28;20040;-85
2023/05/17 04:00:23;;;;;;;7.82;0.90;;;8.30;99.90;;;;;;5113585;28;20376;-84
2023/05/17 04:02:50;;;;;;;6.80;0.73;;;8.30;99.90;;;;;;5095329;28;20453;-84
2023/05/17 04:05:16;;;;;;;5.03;0.50;;;8.30;99.90;;;;;;5113622;28;20044;-86
2023/05/17 04:07:42;;;;;;;5.35;1.20;;;8.30;99.90;;;;;;5083637;28;20396;-85
2023/05/17 04:10:08;;;;;;;12.32;1.05;;;8.40;99.90;;;;;;5074937;28;20131;-86
2023/05/17 04:12:34;;;;;;;9.48;0.63;;;8.30;99.90;;;;;;5093051;28;20067;-85
2023/05/17 04:15:00;;;;;;;8.93;0.50;;;8.60;99.90;;;;;;5111154;28;20047;-84
2023/05/17 04:17:26;;;;;;;5.22;0.65;;;8.30;99.90;;;;;;5113276;28;20044;-84
2023/05/17 04:19:52;;;;;;;7.93;0.65;;;8.30;99.90;;;;;;5112695;28;20043;-85
2023/05/17 04:22:19;;;;;;;5.55;0.70;;;8.70;99.90;;;;;;5112509;28;20047;-83
2023/05/17 04:24:45;;;;;;;4.47;0.85;;;8.80;99.90;;;;;;5113367;28;20051;-84
2023/05/17 04:27:10;;;;;;;6.13;0.60;;;8.30;99.90;;;;;;5112932;28;20360;-83
2023/05/17 04:29:36;;;;;;;8.10;0.98;;;8.30;99.90;;;;;;5094902;28;20130;-85
2023/05/17 04:32:02;;;;;;;1.52;0.50;;;8.50;99.90;;;;;;5095015;28;20055;-86
2023/05/17 04:34:28;;;;;;;7.28;0.60;;;8.30;99.90;;;;;;5113807;28;20450;-84
2023/05/17 04:36:54;;;;;;;5.00;0.60;;;8.30;99.90;;;;;;5076738;28;20048;-84
2023/05/17 04:39:20;;;;;;;7.80;0.50;;;8.30;99.90;;;;;;5092939;28;20411;-83
2023/05/17 04:41:46;;;;;;;4.47;0.70;;;8.40;99.90;;;;;;5074833;28;20113;-83
2023/05/17 04:44:11;;;;;;;4.43;0.55;;;8.60;99.90;;;;;;5092933;28;20067;-83
2023/05/17 04:46:37;;;;;;;8.20;0.60;;;8.40;99.90;;;;;;5104493;28;20493;-84
2023/05/17 04:49:03;;;;;;;6.68;0.63;;;8.90;99.90;;;;;;5112947;28;20066;-84
2023/05/17 04:51:29;;;;;;;5.47;0.70;;;8.30;99.90;;;;;;5112914;28;20051;-83
2023/05/17 04:53:55;;;;;;;6.85;0.70;;;8.40;99.90;;;;;;5113211;28;20105;-83
2023/05/17 04:56:21;;;;;;;5.07;0.57;;;8.60;99.90;;;;;;5094610;28;20398;-83
2023/05/17 04:58:47;;;;;;;5.78;0.60;;;8.40;99.90;;;;;;5097992;28;20051;-83
2023/05/17 05:01:13;;;;;;;2.65;0.45;;;8.90;99.90;;;;;;5097501;28;20039;-83
2023/05/17 05:03:38;;;;;;;1.92;0.73;;;8.40;99.90;;;;;;5116943;28;20057;-82
2023/05/17 05:06:04;;;;;;;3.22;0.82;;;8.40;99.90;;;;;;5117064;28;20085;-83
2023/05/17 05:08:32;;;;;;;2.67;0.63;;;8.40;99.90;;;;;;5116782;28;20044;-83
2023/05/17 05:10:58;;;;;;;5.90;0.70;;;8.70;99.90;;;;;;5105458;28;20058;-85
2023/05/17 05:13:24;;;;;;;5.07;0.60;;;8.60;99.90;;;;;;5116324;28;20048;-83
2023/05/17 05:15:49;;;;;;;6.63;0.60;;;9.30;99.90;;;;;;5116637;28;20044;-84
2023/05/17 05:18:15;;;;;;;7.63;1.00;;;8.60;99.90;;;;;;5116124;28;20406;-84
2023/05/17 05:20:41;;;;;;;7.80;0.82;;;8.60;99.90;;;;;;5108846;28;20101;-83
2023/05/17 05:23:07;;;;;;;12.43;1.58;;;8.70;99.90;;;;;;5096186;28;20050;-84
2023/05/17 05:25:33;;;;;;;11.43;0.82;;;8.80;99.90;;;;;;5096188;28;20040;-85
2023/05/17 05:27:59;;;;;;;10.05;1.15;;;8.80;99.90;;;;;;5095032;28;20039;-83
2023/05/17 05:30:24;;;;;;;9.05;0.80;;;9.20;99.90;;;;;;5096581;28;20535;-82
2023/05/17 05:32:51;;;;;;;7.22;0.90;;;8.90;99.90;;;;;;5096423;28;20036;-83
2023/05/17 05:35:17;;;;;;;10.05;0.80;;;9.00;99.90;;;;;;5095946;28;20040;-85
2023/05/17 05:37:43;;;;;;;8.18;1.10;;;9.00;99.90;;;;;;5095510;28;20059;-85
2023/05/17 05:40:10;;;;;;;9.05;1.00;;;9.00;99.90;;;;;;5100836;28;20084;-86
2023/05/17 05:42:36;;;;;;;8.20;0.73;;;9.10;99.90;;;;;;5097944;28;20131;-83
2023/05/17 05:45:01;;;;;;;7.15;0.75;;;9.10;99.90;;;;;;5097948;28;20471;-82
2023/05/17 05:47:27;;;;;;;6.88;1.00;;;9.20;99.90;;;;;;5098064;28;20044;-82
2023/05/17 05:49:53;;;;;;;6.45;1.13;;;9.30;99.90;;;;;;5115891;28;20049;-84
2023/05/17 05:52:18;;;;;;;10.27;0.68;;;9.20;99.90;;;;;;5109320;28;20073;-83
2023/05/17 05:54:44;;;;;;;8.18;0.80;;;9.20;99.90;;;;;;5097087;28;20165;-84
2023/05/17 05:57:10;;;;;;;14.07;1.35;;;9.20;99.90;;;;;;5097303;28;20039;-82
2023/05/17 05:59:36;;;;;;;9.38;0.80;;;9.20;99.90;;;;;;5115747;28;20087;-83
2023/05/17 06:02:01;;;;;;;8.18;1.17;;;9.20;99.90;;;;;;5097656;28;20074;-83
2023/05/17 06:04:27;;;;;;;8.52;1.10;;;9.10;99.90;;;;;;5082686;28;20055;-83
2023/05/17 06:06:56;;;;;;;8.07;0.98;;;9.20;99.90;;;;;;5095098;28;20048;-85
2023/05/17 06:09:21;;;;;;;4.63;0.80;;;9.10;99.90;;;;;;5095214;28;20440;-85
2023/05/17 06:11:47;;;;;;;10.35;1.08;;;9.20;99.90;;;;;;5095440;28;20044;-83
2023/05/17 06:14:13;;;;;;;7.75;1.00;;;9.20;99.90;;;;;;5093922;28;20501;-83
2023/05/17 06:16:39;;;;;;;8.10;1.05;;;9.20;99.90;;;;;;5095672;28;20081;-82
2023/05/17 06:19:05;;;;;;;4.10;0.77;;;9.50;99.90;;;;;;5093971;28;20113;-83
2023/05/17 06:21:31;;;;;;;3.83;0.90;;;9.40;99.90;;;;;;5095801;28;20036;-82
2023/05/17 06:23:56;;;;;;;9.13;1.20;;;9.40;99.90;;;;;;5115967;28;20432;-82
2023/05/17 06:26:22;;;;;;;6.72;1.00;;;9.70;99.90;;;;;;5114877;28;20043;-84
2023/05/17 06:28:48;;;;;;;4.60;1.13;;;9.40;99.90;;;;;;5115413;28;20047;-82
2023/05/17 06:31:13;;;;;;;14.43;1.23;;;9.80;99.90;;;;;;5097200;28;20071;-82
2023/05/17 06:33:39;;;;;;;4.35;0.70;;;9.60;99.90;;;;;;5112661;28;20050;-80
2023/05/17 06:36:05;;;;;;;10.38;0.82;;;9.70;99.90;;;;;;5095552;28;20039;-83
2023/05/17 06:38:31;;;;;;;9.18;0.68;;;9.90;99.90;;;;;;5094651;28;20403;-81
2023/05/17 06:40:57;;;;;;;6.47;0.88;;;10.00;99.90;;;;;;5094105;28;20048;-82
2023/05/17 06:43:23;;;;;;;6.78;0.95;;;10.50;99.90;;;;;;5114709;28;20047;-82
2023/05/17 06:45:49;;;;;;;5.90;0.63;;;10.20;99.90;;;;;;5113986;28;20055;-81
2023/05/17 06:48:14;;;;;;;9.00;0.90;;;10.30;99.90;;;;;;5114898;28;20043;-82
2023/05/17 06:50:40;;;;;;;6.95;0.60;;;10.40;99.90;;;;;;5114731;28;20784;-81
2023/05/17 06:53:06;;;;;;;5.43;0.80;;;10.60;99.90;;;;;;5114991;28;20104;-80
2023/05/17 06:55:31;;;;;;;6.30;0.68;;;10.40;99.90;;;;;;5114981;28;20433;-80
2023/05/17 06:57:58;;;;;;;6.22;0.52;;;10.40;99.90;;;;;;5115050;28;20040;-82
2023/05/17 07:00:24;;;;;;;3.65;0.45;;;10.40;99.90;;;;;;5079134;28;20084;-81
2023/05/17 07:02:50;;;;;;;2.97;0.60;;;10.40;99.90;;;;;;5114633;28;20043;-80
2023/05/17 07:05:16;;;;;;;6.65;0.70;;;10.30;99.90;;;;;;5105272;28;20078;-81
2023/05/17 07:07:42;;;;;;;3.65;0.60;;;10.40;99.90;;;;;;5114473;28;20122;-81
2023/05/17 07:10:07;;;;;;;4.38;0.55;;;10.50;99.90;;;;;;5088393;28;20040;-81
2023/05/17 07:12:33;;;;;;;3.47;0.70;;;10.50;99.90;;;;;;5094197;28;20052;-81
2023/05/17 07:14:59;;;;;;;5.70;0.73;;;10.40;99.90;;;;;;5105830;28;20042;-80
2023/05/17 07:17:24;;;;;;;7.97;0.90;;;10.60;99.90;;;;;;5098923;28;20410;-80
2023/05/17 07:19:50;;;;;;;3.05;0.60;;;10.40;99.90;;;;;;5097728;28;20047;-80
2023/05/17 07:22:17;;;;;;;6.93;0.80;;;10.40;99.90;;;;;;5113403;28;20050;-80
2023/05/17 07:24:45;;;;;;;8.25;0.80;;;10.50;99.90;;;;;;5112391;28;20571;-80
2023/05/17 07:27:11;;;;;;;3.97;0.68;;;11.00;99.90;;;;;;5112307;28;20067;-81
2023/05/17 07:29:37;;;;;;;6.72;1.00;;;10.60;99.90;;;;;;5114074;28;20078;-82
2023/05/17 07:32:03;;;;;;;11.50;0.98;;;10.40;99.90;;;;;;5095826;28;20044;-80
2023/05/17 07:34:31;;;;;;;6.53;0.60;;;10.70;99.90;;;;;;5114066;28;20387;-80
2023/05/17 07:36:57;;;;;;;6.95;0.90;;;11.00;99.90;;;;;;5111566;28;20133;-80
2023/05/17 07:39:23;;;;;;;5.70;0.80;;;10.90;99.90;;;;;;5113846;28;20127;-80
2023/05/17 07:41:48;;;;;;;8.20;0.63;;;10.60;99.90;;;;;;5113974;28;20040;-80
2023/05/17 07:44:14;;;;;;;5.68;0.88;;;10.60;99.90;;;;;;5113837;28;20129;-81
2023/05/17 07:47:00;;;;;;;4.63;0.95;;;10.50;99.90;;;;;;5112043;28;20528;-81
2023/05/17 07:49:26;;;;;;;5.13;0.98;;;10.90;99.90;;;;;;5011399;28;20053;-80
2023/05/17 07:51:52;;;;;;;10.75;1.73;;;10.60;99.90;;;;;;4995256;28;20050;-80
2023/05/17 07:54:26;;;;;;;7.70;0.90;;;10.60;99.90;;;;;;5011335;28;20478;-80
2023/05/17 07:56:54;;;;;;;7.50;0.97;;;10.70;99.90;;;;;;5009552;28;20131;-80
2023/05/17 07:59:20;;;;;;;5.70;0.80;;;10.80;99.90;;;;;;5010982;28;20401;-80
2023/05/17 08:01:46;;;;;;;7.40;1.08;;;11.50;99.90;;;;;;5011006;28;20054;-80
2023/05/17 08:04:13;;;;;;;5.10;0.60;;;11.30;99.90;;;;;;5011169;28;20042;-80
2023/05/17 08:06:39;;;;;;;4.53;0.80;;;11.70;99.90;;;;;;5010967;28;20125;-81
2023/05/17 08:09:06;;;;;;;10.15;0.70;;;11.50;99.90;;;;;;5008968;28;20045;-80
2023/05/17 08:11:33;;;;;;;5.45;0.68;;;11.40;99.50;;;;;;4994818;28;20042;-81
2023/05/17 08:14:02;;;;;;;6.85;0.73;;;11.50;99.90;;;;;;5011160;28;20057;-80
2023/05/17 08:16:27;;;;;;;5.30;0.70;;;11.60;99.20;;;;;;5011153;28;20139;-80
2023/05/17 08:18:53;;;;;;;6.47;0.60;;;11.60;99.90;;;;;;5009132;28;20105;-80
2023/05/17 08:21:19;;;;;;;6.15;0.68;;;11.80;98.10;;;;;;5010114;28;20046;-80
2023/05/17 08:23:45;;;;;;;5.43;0.93;;;11.50;99.60;;;;;;5010900;28;20041;-80
2023/05/17 08:26:11;;;;;;;5.57;0.60;;;11.60;99.30;;;;;;5048608;28;20047;-80
2023/05/17 08:28:37;;;;;;;4.18;0.70;;;11.50;98.70;;;;;;5112013;28;20132;-80
2023/05/17 08:31:03;;;;;;;3.95;0.70;;;11.50;99.90;;;;;;5112239;27;20124;-80
2023/05/17 08:33:29;;;;;;;6.75;0.70;;;11.50;99.90;;;;;;5112915;28;20028;-80
2023/05/17 08:35:56;;;;;;;6.43;1.08;;;11.60;99.90;;;;;;5113145;28;20047;-80
2023/05/17 08:38:22;;;;;;;5.65;0.70;;;11.70;99.90;;;;;;5112481;28;20047;-80
2023/05/17 08:40:55;;;;;;;7.10;0.60;;;11.50;99.70;;;;;;5111075;28;20544;-80
2023/05/17 08:43:22;;;;;;;4.57;0.77;;;11.50;99.90;;;;;;5113114;28;20433;-80
2023/05/17 08:45:51;;;;;;;5.70;0.93;;;11.50;99.90;;;;;;5113096;28;20056;-80
2023/05/17 08:48:21;;;;;;;5.97;0.88;;;11.50;99.90;;;;;;5094773;28;20047;-81
2023/05/17 08:50:53;;;;;;;6.10;1.67;;;11.40;99.90;;;;;;5111298;28;20395;-80
2023/05/17 08:53:19;;;;;;;4.13;0.85;;;11.30;99.90;;;;;;5112695;28;20032;-81
2023/05/17 08:55:48;;;;;;;5.70;0.50;;;11.40;99.90;;;;;;5112837;28;20088;-80
2023/05/17 08:58:18;;;;;;;3.58;0.43;;;11.40;99.90;;;;;;5113057;28;20115;-80
2023/05/17 09:00:45;;;;;;;6.63;0.63;;;11.50;99.90;;;;;;5094217;28;20039;-80
2023/05/17 09:03:16;;;;;;;4.38;0.60;;;11.40;99.90;;;;;;5111268;28;20067;-80
2023/05/17 09:05:43;;;;;;;5.20;0.60;;;11.40;99.90;;;;;;5112706;28;20516;-80
2023/05/17 09:08:12;;;;;;;4.07;0.73;;;11.50;99.90;;;;;;5112636;28;20039;-81
2023/05/17 09:10:39;;;;;;;10.15;0.70;;;11.50;99.90;;;;;;5113099;28;20031;-81
2023/05/17 09:13:05;;;;;;;5.57;0.68;;;11.60;99.90;;;;;;5081229;28;20044;-80
2023/05/17 09:15:33;;;;;;;3.53;0.50;;;11.80;99.90;;;;;;5092647;28;20043;-80
2023/05/17 09:17:58;;;;;;;13.32;0.80;;;11.80;99.90;;;;;;5091142;28;20113;-80
2023/05/17 09:20:35;;;;;;;4.43;0.93;;;11.60;99.60;;;;;;5091461;28;20439;-80
2023/05/17 09:23:03;;;;;;;5.07;1.00;;;11.80;99.90;;;;;;5075860;28;20048;-80
2023/05/17 09:25:30;;;;;;;3.17;0.50;;;11.90;99.90;;;;;;5092581;28;20036;-80
2023/05/17 09:28:00;;;;;;;5.90;0.70;;;11.90;99.50;;;;;;5092821;28;20102;-81
2023/05/17 09:30:27;;;;;;;4.25;0.40;;;12.00;99.90;;;;;;5093026;28;20395;-81
2023/05/17 09:32:54;;;;;;;7.63;0.82;;;12.40;99.90;;;;;;5092654;28;20050;-81
2023/05/17 09:35:30;;;;;;;4.03;0.40;;;12.20;99.10;;;;;;5111962;28;20444;-80
2023/05/17 09:38:05;;;;;;;4.40;0.88;;;12.30;98.40;;;;;;5094191;28;20090;-80
2023/05/17 09:40:31;;;;;;;5.00;0.60;;;12.20;98.60;;;;;;5112477;28;20044;-80
2023/05/17 09:42:58;;;;;;;8.80;1.10;;;12.40;99.00;;;;;;5112830;28;20055;-80
2023/05/17 09:45:24;;;;;;;3.50;0.52;;;12.10;99.10;;;;;;5083189;28;20500;-80
2023/05/17 09:47:51;;;;;;;2.80;0.50;;;12.30;99.30;;;;;;5095699;28;20046;-81
2023/05/17 09:50:20;;;;;;;5.05;0.70;;;12.20;97.90;;;;;;5095849;28;20190;-80
2023/05/17 09:52:46;;;;;;;3.70;0.43;;;12.00;95.70;;;;;;5094406;28;20048;-80
2023/05/17 09:55:12;;;;;;;5.65;0.50;;;12.20;97.90;;;;;;5101921;28;20035;-80
2023/05/17 09:57:40;;;;;;;4.85;1.80;;;12.00;97.40;;;;;;5080275;28;20064;-80
2023/05/17 10:00:10;;;;;;;3.72;0.70;;;12.10;97.90;;;;;;5095672;28;20044;-80
2023/05/17 10:02:37;;;;;;;2.75;0.50;;;12.40;97.10;;;;;;5095728;28;20040;-80
2023/05/17 10:05:06;;;;;;;6.10;0.70;;;12.30;98.20;;;;;;5095711;28;20044;-80
2023/05/17 10:07:33;;;;;;;5.57;1.20;;;12.20;99.30;;;;;;5114484;28;20498;-80
2023/05/17 10:09:59;;;;;;;5.13;0.60;;;12.10;98.60;;;;;;5097618;28;20044;-79
2023/05/17 10:12:28;;;;;;;4.65;0.50;;;12.00;98.00;;;;;;5116151;28;20071;-79
2023/05/17 10:14:55;;;;;;;11.20;0.73;;;12.00;98.20;;;;;;5115943;28;20047;-80
2023/05/17 10:17:25;;;;;;;4.03;0.77;;;12.00;98.10;;;;;;5084501;28;20694;-80
2023/05/17 10:19:52;;;;;;;8.27;1.40;;;12.20;98.90;;;;;;5095050;28;20036;-79
2023/05/17 10:22:19;;;;;;;4.78;1.08;;;12.50;99.90;;;;;;5113389;28;20044;-85
2023/05/17 10:24:47;;;;;;;3.10;0.63;;;12.50;97.60;;;;;;5115319;28;20195;-84
2023/05/17 10:27:14;;;;;;;3.92;0.75;;;12.30;97.00;;;;;;5110128;28;20399;-83
2023/05/17 10:29:41;;;;;;;10.05;0.90;;;12.40;98.30;;;;;;5101943;28;20065;-84
2023/05/17 10:32:08;;;;;;;3.35;0.70;;;12.50;97.30;;;;;;5095144;28;20048;-84
2023/05/17 10:34:35;;;;;;;3.97;0.55;;;12.50;97.80;;;;;;5106365;28;20115;-84
2023/05/17 10:37:01;;;;;;;4.13;0.60;;;12.60;99.70;;;;;;5094362;28;20048;-82
2023/05/17 10:39:28;;;;;;;3.50;0.70;;;12.50;97.70;;;;;;5107439;28;20058;-84
2023/05/17 10:41:55;;;;;;;6.53;0.82;;;12.50;97.10;;;;;;5096783;28;20494;-84
2023/05/17 10:44:22;;;;;;;6.22;0.73;;;12.30;96.30;;;;;;5115116;28;20093;-85
2023/05/17 10:46:53;;;;;;;4.32;0.60;;;12.20;96.70;;;;;;5115223;28;20044;-84
2023/05/17 10:49:19;;;;;;;7.00;0.88;;;12.30;97.10;;;;;;5115245;28;20058;-82
2023/05/17 10:51:45;;;;;;;2.22;0.60;;;12.20;97.10;;;;;;5099452;28;20040;-85
2023/05/17 10:54:17;;;;;;;6.88;0.80;;;12.20;97.10;;;;;;5094666;28;20392;-84
2023/05/17 10:56:52;;;;;;;4.75;0.60;;;12.40;95.40;;;;;;5094570;28;20164;-82
2023/05/17 10:59:20;;;;;;;;;;;12.60;96.10;;;;;;5094902;28;20400;-83
2023/05/17 11:02:06;;;;;;;7.97;1.50;;;13.00;97.60;;;;;;5094198;28;20010;-82
2023/05/17 11:04:41;;;;;;;10.43;1.17;;;12.90;94.00;;;;;;5088685;28;20051;-83
2023/05/17 11:07:16;;;;;;;4.63;0.95;;;13.20;94.60;;;;;;5093007;28;20429;-84
2023/05/17 11:09:48;;;;;;;3.88;0.70;;;13.40;93.80;;;;;;5100310;28;20046;-82
2023/05/17 11:12:15;;;;;;;6.47;0.90;;;13.20;95.70;;;;;;5090021;28;20044;-85
2023/05/17 11:14:43;;;;;;;6.38;1.10;;;13.00;95.80;;;;;;5075893;28;20198;-84
2023/05/17 11:17:13;;;;;;;8.00;0.93;;;13.00;96.50;;;;;;5075721;28;20062;-86
2023/05/17 11:19:53;;;;;;;5.90;0.50;;;13.00;97.40;;;;;;5094169;28;20044;-84
2023/05/17 11:22:26;;;;;;;8.93;0.75;;;12.90;99.00;;;;;;5109153;28;20131;-85
2023/05/17 11:24:55;;;;;;;8.10;0.65;;;12.90;99.00;;;;;;5089393;28;20044;-85
2023/05/17 11:27:27;;;;;;;5.68;0.70;;;12.90;97.70;;;;;;5075946;28;20093;-81
2023/05/17 11:29:54;;;;;;;5.50;1.13;;;12.80;98.10;;;;;;5093534;28;20545;-85
2023/05/17 11:32:31;;;;;;;7.50;0.80;;;13.00;98.90;;;;;;5075845;28;20146;-82
2023/05/17 11:35:00;;;;;;;11.90;1.30;;;13.00;97.70;;;;;;5093914;28;20040;-82
2023/05/17 11:37:27;;;;;;;5.82;0.57;;;13.10;98.50;;;;;;5058549;28;20056;-82
2023/05/17 11:40:04;;;;;;;7.80;0.80;;;13.50;99.30;;;;;;5093936;28;20093;-82
2023/05/17 11:42:30;;;;;;;4.90;1.00;;;13.70;97.40;;;;;;5111725;28;20031;-82
2023/05/17 11:44:57;;;;;;;3.88;0.50;;;13.90;98.60;;;;;;5113929;28;20043;-82
2023/05/17 11:47:23;;;;;;;2.58;0.52;;;13.50;96.60;;;;;;5111073;28;20044;-80
2023/05/17 11:49:52;;;;;;;7.43;0.70;;;13.60;96.20;;;;;;5093360;28;20123;-83
2023/05/17 11:52:17;;;;;;;4.03;0.60;;;13.60;96.30;;;;;;5099726;28;20035;-84
2023/05/17 11:54:44;;;;;;;6.97;0.93;;;13.30;96.40;;;;;;5100611;28;20036;-81
2023/05/17 11:57:14;;;;;;;7.13;0.77;;;13.30;96.70;;;;;;5099476;28;20044;-84
2023/05/17 11:59:40;;;;;;;2.65;1.02;;;13.10;97.50;;;;;;5092394;28;20051;-86
2023/05/17 12:02:06;;;;;;;6.93;1.35;;;13.10;98.10;;;;;;5095386;28;20040;-89
2023/05/17 12:04:36;;;;;;;6.63;0.77;;;13.40;99.00;;;;;;5111337;28;20055;-83
2023/05/17 12:07:02;;;;;;;6.15;0.82;;;13.70;97.20;;;;;;5091405;28;20040;-86
2023/05/17 12:09:28;;;;;;;2.63;0.63;;;13.90;95.70;;;;;;5083881;28;20048;-81
2023/05/17 12:11:55;;;;;;;4.20;0.55;;;14.10;95.50;;;;;;5090848;28;20042;-82
2023/05/17 12:14:21;;;;;;;5.05;0.95;;;13.70;92.80;;;;;;5111027;28;20130;-81
2023/05/17 12:16:51;;;;;;;7.25;0.80;;;13.60;93.20;;;;;;5113466;28;20188;-82
2023/05/17 12:19:22;;;;;;;5.75;0.75;;;13.50;94.00;;;;;;5095114;28;20046;-85
2023/05/17 12:21:48;;;;;;;7.72;0.60;;;13.80;93.00;;;;;;5094931;28;20048;-83
2023/05/17 12:24:15;;;;;;;1.92;0.43;;;13.60;93.90;;;;;;5111532;28;20144;-83
2023/05/17 12:26:46;;;;;;;3.63;0.60;;;13.70;95.20;;;;;;5113398;28;20093;-84
2023/05/17 12:29:14;;;;;;;3.75;0.50;;;13.80;95.10;;;;;;5107836;28;20050;-81
2023/05/17 12:31:44;;;;;;;5.60;0.70;;;13.80;94.10;;;;;;5102078;28;20123;-83
2023/05/17 12:34:14;;;;;;;6.47;0.80;;;13.90;93.70;;;;;;5093660;28;20039;-86
2023/05/17 12:36:40;;;;;;;7.15;1.17;;;14.00;93.90;;;;;;5093441;28;20035;-81
2023/05/17 12:39:08;;;;;;;6.78;0.73;;;13.80;93.10;;;;;;5112945;28;20058;-82
2023/05/17 12:41:35;;;;;;;3.80;0.60;;;13.80;92.70;;;;;;5111848;28;20135;-79
2023/05/17 12:44:01;;;;;;;5.57;0.70;;;13.50;92.70;;;;;;5101321;28;20051;-83
2023/05/17 12:46:27;;;;;;;5.03;0.60;;;13.50;93.80;;;;;;5113152;28;20044;-81
2023/05/17 12:48:54;;;;;;;5.88;0.70;;;13.70;95.60;;;;;;5113054;28;20044;-81
2023/05/17 12:51:22;;;;;;;3.60;0.85;;;13.90;95.90;;;;;;5094958;28;20057;-82
2023/05/17 12:53:55;;;;;;;4.75;0.70;;;14.00;93.70;;;;;;5112788;28;20086;-83
2023/05/17 12:56:23;;;;;;;4.88;0.55;;;13.80;93.50;;;;;;5113081;28;20399;-82
2023/05/17 12:59:24;;;;;;;2.72;0.50;;;13.70;94.00;;;;;;5112870;28;20048;-82
2023/05/17 13:01:52;;;;;;;3.38;0.55;;;13.90;94.60;;;;;;4994076;28;20116;-83
2023/05/17 13:04:19;;;;;;;4.53;0.60;;;14.30;95.30;;;;;;5010493;28;20119;-82
2023/05/17 13:06:48;;;;;;;3.20;0.50;;;14.70;92.50;;;;;;5010420;28;20057;-83
2023/05/17 13:09:17;;;;;;;4.07;0.80;;;14.50;92.20;;;;;;5010477;28;20045;-82
2023/05/17 13:11:43;;;;;;;1.70;0.40;;;14.40;92.00;;;;;;4994040;28;20053;-83
2023/05/17 13:14:11;;;;;;;3.97;0.50;;;14.10;93.10;;;;;;5010451;28;20050;-83
2023/05/17 13:16:38;;;;;;;3.08;0.50;;;14.10;92.70;;;;;;5010422;28;20058;-82
2023/05/17 13:19:13;;;;;;;5.00;0.60;;;14.10;93.80;;;;;;5011842;28;20053;-82
2023/05/17 13:21:39;;;;;;;3.42;0.38;;;13.70;93.60;;;;;;5014217;28;20056;-82
2023/05/17 13:24:04;;;;;;;3.67;0.50;;;13.70;94.10;;;;;;4997796;28;20058;-83
2023/05/17 13:26:30;;;;;;;4.22;0.80;;;13.60;93.30;;;;;;5014098;28;20046;-83